createdAt,value
2022-11-25T00:01:29.491Z,2.58
2022-11-25T00:03:57.669Z,2.33
2022-11-25T00:06:26.785Z,2.58
2022-11-25T00:09:01.701Z,2.30
2022-11-25T00:11:28.746Z,2.32
2022-11-25T00:13:56.616Z,2.19
2022-11-25T00:16:24.573Z,2.32
2022-11-25T00:18:52.971Z,2.52
2022-11-25T00:21:23.180Z,2.84
2022-11-25T00:23:58.373Z,2.85
2022-11-25T00:26:26.525Z,2.95
2022-11-25T00:28:53.508Z,2.99
2022-11-25T00:31:22.982Z,2.93
2022-11-25T00:33:50.402Z,2.97
2022-11-25T00:36:22.662Z,2.28
2022-11-25T00:38:56.744Z,2.32
2022-11-25T00:41:42.718Z,2.53
2022-11-25T00:44:29.923Z,2.42
2022-11-25T00:46:56.411Z,2.61
2022-11-25T00:49:23.003Z,2.80
2022-11-25T00:51:49.483Z,1.89
2022-11-25T00:54:16.085Z,2.29
2022-11-25T00:56:42.584Z,1.88
2022-11-25T00:59:09.589Z,2.61
2022-11-25T01:01:36.542Z,2.51
2022-11-25T01:04:04.071Z,2.23
2022-11-25T01:06:30.560Z,1.91
2022-11-25T01:08:57.001Z,2.43
2022-11-25T01:11:24.294Z,2.61
2022-11-25T01:13:52.236Z,2.72
2022-11-25T01:16:21.234Z,2.94
2022-11-25T01:18:48.633Z,2.99
2022-11-25T01:21:23.728Z,2.97
2022-11-25T01:23:51.061Z,2.99
2022-11-25T01:26:20.139Z,3.17
2022-11-25T01:28:47.072Z,2.93
2022-11-25T01:31:15.346Z,3.16
2022-11-25T01:33:42.144Z,3.23
2022-11-25T01:36:11.565Z,3.18
2022-11-25T01:38:38.615Z,3.25
2022-11-25T01:41:06.649Z,3.21
2022-11-25T01:43:33.415Z,3.04
2022-11-25T01:46:05.983Z,3.04
2022-11-25T01:48:46.815Z,3.08
2022-11-25T01:51:38.521Z,3.20
2022-11-25T01:54:08.741Z,3.05
2022-11-25T01:56:42.088Z,3.06
2022-11-25T01:59:08.674Z,3.19
2022-11-25T02:01:35.235Z,3.04
2022-11-25T02:04:02.309Z,2.84
2022-11-25T02:07:25.543Z,3.05
2022-11-25T02:09:52.944Z,2.99
2022-11-25T02:12:20.593Z,3.05
2022-11-25T02:14:50.718Z,2.59
2022-11-25T02:17:17.534Z,2.74
2022-11-25T02:20:04.556Z,2.71
2022-11-25T02:22:40.615Z,2.40
2022-11-25T02:25:32.679Z,2.34
2022-11-25T02:28:05.987Z,2.35
2022-11-25T02:30:33.479Z,2.72
2022-11-25T02:33:00.776Z,2.27
2022-11-25T02:35:36.740Z,1.85
2022-11-25T02:38:05.855Z,1.97
2022-11-25T02:40:34.580Z,2.04
2022-11-25T02:43:01.101Z,1.99
2022-11-25T02:45:45.172Z,2.28
2022-11-25T02:48:11.654Z,1.87
2022-11-25T02:50:38.104Z,1.75
2022-11-25T02:53:04.811Z,1.29
2022-11-25T02:55:31.260Z,1.73
2022-11-25T02:57:57.714Z,1.98
2022-11-25T03:00:24.565Z,2.41
2022-11-25T03:02:53.612Z,2.44
2022-11-25T03:05:21.783Z,2.38
2022-11-25T03:07:48.433Z,2.62
2022-11-25T03:10:14.963Z,2.68
2022-11-25T03:12:41.379Z,2.75
2022-11-25T03:15:08.282Z,2.83
2022-11-25T03:17:34.737Z,2.83
2022-11-25T03:20:01.146Z,2.99
2022-11-25T03:22:27.730Z,2.86
2022-11-25T03:24:54.151Z,2.74
2022-11-25T03:27:20.758Z,2.63
2022-11-25T03:29:47.292Z,2.72
2022-11-25T03:32:13.768Z,2.89
2022-11-25T03:34:40.550Z,2.94
2022-11-25T03:37:07.179Z,2.78
2022-11-25T03:39:33.653Z,2.91
2022-11-25T03:42:00.086Z,3.06
2022-11-25T03:44:26.517Z,3.04
2022-11-25T03:46:53.117Z,3.09
2022-11-25T03:49:21.691Z,3.17
2022-11-25T03:51:49.078Z,3.20
2022-11-25T03:54:15.515Z,3.23
2022-11-25T03:56:42.110Z,2.98
2022-11-25T03:59:08.504Z,3.01
2022-11-25T04:01:35.176Z,3.03
2022-11-25T04:04:02.526Z,3.23
2022-11-25T04:06:29.319Z,3.09
2022-11-25T04:08:55.816Z,3.19
2022-11-25T04:11:22.235Z,3.20
2022-11-25T04:13:48.654Z,3.21
2022-11-25T04:16:26.338Z,3.35
2022-11-25T04:18:52.841Z,3.22
2022-11-25T04:21:19.420Z,3.13
2022-11-25T04:23:45.844Z,2.63
2022-11-25T04:26:12.353Z,3.07
2022-11-25T04:28:38.862Z,2.84
2022-11-25T04:31:09.312Z,3.23
2022-11-25T04:33:35.765Z,3.13
2022-11-25T04:36:02.181Z,3.23
2022-11-25T04:38:29.074Z,3.05
2022-11-25T04:40:55.509Z,3.21
2022-11-25T04:43:21.933Z,3.30
2022-11-25T04:46:13.056Z,3.14
2022-11-25T04:48:35.259Z,3.30
2022-11-25T04:51:01.793Z,3.16
2022-11-25T04:53:28.206Z,3.21
2022-11-25T04:55:54.635Z,3.06
2022-11-25T04:58:41.028Z,3.28
2022-11-25T05:01:07.573Z,3.18
2022-11-25T05:03:34.022Z,3.26
2022-11-25T05:06:05.086Z,3.41
2022-11-25T05:08:32.032Z,3.23
2022-11-25T05:10:59.337Z,3.26
2022-11-25T05:13:26.090Z,3.36
2022-11-25T05:15:52.510Z,3.32
2022-11-25T05:18:18.970Z,3.32
2022-11-25T05:20:45.618Z,3.29
2022-11-25T05:23:12.038Z,3.44
2022-11-25T05:25:38.557Z,3.46
2022-11-25T05:28:05.243Z,3.12
2022-11-25T05:30:31.736Z,3.27
2022-11-25T05:32:58.240Z,3.34
2022-11-25T05:35:24.788Z,3.07
2022-11-25T05:37:51.257Z,3.06
2022-11-25T05:40:17.826Z,3.03
2022-11-25T05:42:44.291Z,3.14
2022-11-25T05:45:11.191Z,3.36
2022-11-25T05:47:37.674Z,3.23
2022-11-25T05:50:04.538Z,3.25
2022-11-25T05:52:30.951Z,3.02
2022-11-25T05:54:57.694Z,3.18
2022-11-25T05:57:24.196Z,3.10
2022-11-25T05:59:50.657Z,3.00
2022-11-25T06:02:17.140Z,2.99
2022-11-25T06:04:43.662Z,3.03
2022-11-25T06:07:10.239Z,3.07
2022-11-25T06:09:36.716Z,2.95
2022-11-25T06:12:03.953Z,2.93
2022-11-25T06:14:32.108Z,2.83
2022-11-25T06:16:58.598Z,2.89
2022-11-25T06:19:25.133Z,2.83
2022-11-25T06:21:51.657Z,2.93
2022-11-25T06:24:18.275Z,2.81
2022-11-25T06:26:44.779Z,2.73
2022-11-25T06:29:11.496Z,2.80
2022-11-25T06:31:38.027Z,2.83
2022-11-25T06:34:06.535Z,2.60
2022-11-25T06:36:33.214Z,2.57
2022-11-25T06:38:59.648Z,2.76
2022-11-25T06:41:26.494Z,2.81
2022-11-25T06:43:53.168Z,2.65
2022-11-25T06:46:24.974Z,2.66
2022-11-25T06:48:53.444Z,2.77
2022-11-25T06:51:20.149Z,2.71
2022-11-25T06:53:46.680Z,2.56
2022-11-25T06:56:15.863Z,2.64
2022-11-25T06:58:43.993Z,2.32
2022-11-25T07:01:28.636Z,2.10
2022-11-25T07:03:59.756Z,2.27
2022-11-25T07:06:27.411Z,2.19
2022-11-25T07:08:54.361Z,2.03
2022-11-25T07:11:24.671Z,2.01
2022-11-25T07:13:56.842Z,2.36
2022-11-25T07:16:23.442Z,2.18
2022-11-25T07:18:50.047Z,2.28
2022-11-25T07:21:19.408Z,2.28
2022-11-25T07:23:47.155Z,2.26
2022-11-25T07:26:21.639Z,2.05
2022-11-25T07:28:49.412Z,2.14
2022-11-25T07:31:28.694Z,2.29
2022-11-25T07:34:03.921Z,1.82
2022-11-25T07:36:31.907Z,2.55
2022-11-25T07:39:00.471Z,2.81
2022-11-25T07:41:28.366Z,2.64
2022-11-25T07:43:59.157Z,2.21
2022-11-25T07:46:31.330Z,2.28
2022-11-25T07:49:02.556Z,2.05
2022-11-25T07:51:32.561Z,2.73
2022-11-25T07:54:01.270Z,2.88
2022-11-25T07:56:28.723Z,2.98
2022-11-25T07:58:56.843Z,3.03
2022-11-25T08:01:23.572Z,3.08
2022-11-25T08:03:51.328Z,3.13
2022-11-25T08:06:25.253Z,3.14
2022-11-25T08:08:54.671Z,3.15
2022-11-25T08:11:27.187Z,2.91
2022-11-25T08:13:54.492Z,2.79
2022-11-25T08:16:23.902Z,3.07
2022-11-25T08:18:50.747Z,2.95
2022-11-25T08:21:18.045Z,2.93
2022-11-25T08:23:47.961Z,2.72
2022-11-25T08:26:18.104Z,3.04
2022-11-25T08:28:45.465Z,3.10
2022-11-25T08:31:19.229Z,2.90
2022-11-25T08:33:46.887Z,3.20
2022-11-25T08:36:14.211Z,3.18
2022-11-25T08:38:42.504Z,3.18
2022-11-25T08:41:11.974Z,2.89
2022-11-25T08:43:39.567Z,2.94
2022-11-25T08:46:11.612Z,2.78
2022-11-25T08:48:38.993Z,3.17
2022-11-25T08:51:20.746Z,3.18
2022-11-25T08:53:47.610Z,2.95
2022-11-25T08:56:15.138Z,3.33
2022-11-25T08:58:42.194Z,3.17
2022-11-25T09:01:10.815Z,3.37
2022-11-25T09:03:43.577Z,3.82
2022-11-25T09:06:11.174Z,3.68
2022-11-25T09:08:40.073Z,3.43
2022-11-25T09:11:07.866Z,3.58
2022-11-25T09:13:38.026Z,3.79
2022-11-25T09:16:05.632Z,3.90
2022-11-25T09:18:32.688Z,3.97
2022-11-25T09:20:59.788Z,4.24
2022-11-25T09:23:27.193Z,4.34
2022-11-25T09:25:58.037Z,3.93
2022-11-25T09:28:26.813Z,4.13
2022-11-25T09:30:53.558Z,4.42
2022-11-25T09:33:20.429Z,4.26
2022-11-25T09:35:47.491Z,5.15
2022-11-25T09:38:14.299Z,5.33
2022-11-25T09:40:51.152Z,5.40
2022-11-25T09:44:12.047Z,6.05
2022-11-25T09:47:00.390Z,6.75
2022-11-25T09:49:30.815Z,7.30
2022-11-25T09:52:37.148Z,7.09
2022-11-25T09:55:26.585Z,7.27
2022-11-25T09:58:00.027Z,7.82
2022-11-25T10:00:37.633Z,8.10
2022-11-25T10:03:15.335Z,8.30
2022-11-25T10:05:52.851Z,8.58
2022-11-25T10:08:25.257Z,8.30
2022-11-25T10:11:22.862Z,7.80
2022-11-25T10:14:46.273Z,7.31
2022-11-25T10:17:25.429Z,7.35
2022-11-25T10:20:04.900Z,7.78
2022-11-25T10:22:34.894Z,8.07
2022-11-25T10:25:23.782Z,7.49
2022-11-25T10:27:55.790Z,7.67
2022-11-25T10:30:33.091Z,7.93
2022-11-25T10:33:22.656Z,8.21
2022-11-25T10:36:22.120Z,7.99
2022-11-25T10:39:13.624Z,8.20
2022-11-25T10:41:55.173Z,8.49
2022-11-25T10:44:37.707Z,8.61
2022-11-25T10:47:43.301Z,8.77
2022-11-25T10:50:59.115Z,8.55
2022-11-25T10:53:30.807Z,8.61
2022-11-25T10:56:01.496Z,8.73
2022-11-25T10:58:49.540Z,7.96
2022-11-25T11:01:25.856Z,8.89
2022-11-25T11:04:19.071Z,8.49
2022-11-25T11:06:48.413Z,8.63
2022-11-25T11:09:34.500Z,8.48
2022-11-25T11:12:15.512Z,9.05
2022-11-25T11:14:42.069Z,9.07
2022-11-25T11:17:35.999Z,8.83
2022-11-25T11:20:09.629Z,9.22
2022-11-25T11:22:47.443Z,9.66
2022-11-25T11:25:27.775Z,9.00
2022-11-25T11:27:55.001Z,9.24
2022-11-25T11:30:26.640Z,9.31
2022-11-25T11:32:56.188Z,9.30
2022-11-25T11:35:50.925Z,9.53
2022-11-25T11:38:40.690Z,9.60
2022-11-25T11:41:53.854Z,9.62
2022-11-25T11:44:54.746Z,9.81
2022-11-25T11:47:43.811Z,10.26
2022-11-25T11:50:25.032Z,10.48
2022-11-25T11:53:47.218Z,10.16
2022-11-25T12:00:09.595Z,10.29
2022-11-25T12:02:59.207Z,10.32
2022-11-25T12:05:37.296Z,9.61
2022-11-25T12:08:13.672Z,9.39
2022-11-25T12:10:45.274Z,9.43
2022-11-25T12:13:32.933Z,8.91
2022-11-25T12:16:16.301Z,8.62
2022-11-25T12:19:04.165Z,8.53
2022-11-25T12:21:36.310Z,8.52
2022-11-25T12:24:17.334Z,8.60
2022-11-25T12:27:03.745Z,8.34
2022-11-25T12:30:19.118Z,7.86
2022-11-25T12:33:34.893Z,7.43
2022-11-25T12:36:56.843Z,6.78
2022-11-25T12:39:45.725Z,6.54
2022-11-25T12:42:32.840Z,6.61
2022-11-25T12:45:18.404Z,6.59
2022-11-25T12:47:45.448Z,6.44
2022-11-25T12:50:18.948Z,6.71
2022-11-25T12:53:00.535Z,6.74
2022-11-25T12:55:30.834Z,6.49
2022-11-25T13:07:54.286Z,6.67
2022-11-25T13:19:23.340Z,5.41
2022-11-25T13:30:37.730Z,6.26
2022-11-25T13:36:23.100Z,6.16
2022-11-25T13:38:56.696Z,5.99
2022-11-25T13:41:47.483Z,6.04
2022-11-25T13:44:49.025Z,6.04
2022-11-25T13:47:40.771Z,5.89
2022-11-25T13:51:10.774Z,5.92
2022-11-25T13:53:53.036Z,5.74
2022-11-25T13:56:32.525Z,5.73
2022-11-25T13:59:44.323Z,5.44
2022-11-25T14:02:58.743Z,5.48
2022-11-25T14:08:37.851Z,5.25
2022-11-25T14:14:01.211Z,5.25
2022-11-25T14:43:02.365Z,5.33
2022-11-25T16:12:25.751Z,5.37
2022-11-25T16:20:25.379Z,5.43
2022-11-25T16:37:24.531Z,5.37
2022-11-25T16:39:57.728Z,5.13
2022-11-25T16:42:34.158Z,5.36
2022-11-25T16:47:55.534Z,5.34
2022-11-25T16:58:44.204Z,5.62
2022-11-25T17:07:30.671Z,5.47
2022-11-25T17:18:06.896Z,5.57
2022-11-25T17:32:13.527Z,5.29
2022-11-25T17:37:24.047Z,5.50
2022-11-25T17:39:54.434Z,5.55
2022-11-25T17:42:28.612Z,5.15
2022-11-25T17:44:55.844Z,4.89
2022-11-25T17:47:22.560Z,5.06
2022-11-25T17:49:49.691Z,5.11
2022-11-25T17:52:16.968Z,5.10
2022-11-25T17:54:43.666Z,5.14
2022-11-25T17:57:18.960Z,5.21
2022-11-25T17:59:45.624Z,5.19
2022-11-25T18:02:21.500Z,5.36
2022-11-25T18:04:50.546Z,5.57
2022-11-25T18:07:17.858Z,5.37
2022-11-25T18:09:45.664Z,5.60
2022-11-25T18:12:30.942Z,5.57
2022-11-25T18:14:57.877Z,5.20
2022-11-25T18:17:24.849Z,5.59
2022-11-25T18:19:54.866Z,5.57
2022-11-25T18:22:24.595Z,5.70
2022-11-25T18:24:52.480Z,5.61
2022-11-25T18:27:29.908Z,5.55
2022-11-25T18:29:57.382Z,5.59
2022-11-25T18:32:25.745Z,5.20
2022-11-25T18:34:52.652Z,5.47
2022-11-25T20:42:22.368Z,5.79
2022-11-25T20:44:54.695Z,5.73
2022-11-25T20:47:26.082Z,5.80
2022-11-25T21:35:40.760Z,5.97
2022-11-25T21:38:14.964Z,5.93
2022-11-25T21:43:28.816Z,5.94
2022-11-25T21:51:27.505Z,5.62
2022-11-25T21:53:54.555Z,5.91
2022-11-25T22:04:55.452Z,6.03
2022-11-25T22:10:12.054Z,5.97
2022-11-25T22:12:41.684Z,5.81
2022-11-25T22:15:20.852Z,5.86
2022-11-25T22:20:34.325Z,6.08
2022-11-25T22:23:01.730Z,5.96
2022-11-25T22:25:31.191Z,6.05
2022-11-25T22:27:57.705Z,6.11
2022-11-25T22:33:03.109Z,5.82
2022-11-25T22:35:29.759Z,5.75
2022-11-25T22:37:56.258Z,5.73
2022-11-25T22:40:23.966Z,5.63
2022-11-25T22:42:52.049Z,5.47
2022-11-25T22:45:32.966Z,5.81
2022-11-25T22:48:04.649Z,5.76
2022-11-25T22:50:32.119Z,5.62
2022-11-25T22:53:00.250Z,5.77
2022-11-25T22:55:29.851Z,5.84
2022-11-25T22:57:58.703Z,5.71
2022-11-25T23:00:28.247Z,5.76
2022-11-25T23:02:56.788Z,5.67
2022-11-25T23:05:34.745Z,5.96
2022-11-25T23:08:09.158Z,5.75
2022-11-25T23:10:35.645Z,5.90
2022-11-25T23:13:02.069Z,5.82
2022-11-25T23:15:29.454Z,6.07
2022-11-25T23:17:58.379Z,6.17
2022-11-25T23:20:30.485Z,6.04
2022-11-25T23:22:57.866Z,5.64
2022-11-25T23:25:24.901Z,5.82
2022-11-25T23:27:51.352Z,5.95
2022-11-25T23:30:22.899Z,6.01
2022-11-25T23:32:51.478Z,5.99
2022-11-25T23:35:21.645Z,5.97
2022-11-25T23:37:55.021Z,5.88
2022-11-25T23:40:24.018Z,5.97
2022-11-25T23:42:52.490Z,5.46
2022-11-25T23:45:21.343Z,5.95
2022-11-25T23:47:49.797Z,5.84
2022-11-25T23:50:32.407Z,5.74
2022-11-25T23:53:07.657Z,5.68
2022-11-25T23:55:37.186Z,5.65
